sensor_id;sensor_type;location;lat;lon;timestamp;P1;P2;P0
72307;PMS5003;60257;42.638;23.376;2022-08-23T00:00:44;33.67;30.00;19.00
72307;PMS5003;60257;42.638;23.376;2022-08-23T00:03:10;28.67;28.33;19.00
72307;PMS5003;60257;42.638;23.376;2022-08-23T00:05:36;22.75;22.75;14.50
72307;PMS5003;60257;42.638;23.376;2022-08-23T00:08:01;29.00;28.67;17.00
72307;PMS5003;60257;42.638;23.376;2022-08-23T00:10:27;29.67;27.00;17.00
72307;PMS5003;60257;42.638;23.376;2022-08-23T00:12:53;32.00;30.00;18.00
72307;PMS5003;60257;42.638;23.376;2022-08-23T00:15:19;27.67;26.67;14.33
72307;PMS5003;60257;42.638;23.376;2022-08-23T00:17:45;32.33;30.00;19.00
72307;PMS5003;60257;42.638;23.376;2022-08-23T00:20:11;32.67;31.67;20.00
72307;PMS5003;60257;42.638;23.376;2022-08-23T00:22:39;34.67;32.00;19.33
72307;PMS5003;60257;42.638;23.376;2022-08-23T00:25:08;30.67;27.67;16.00
72307;PMS5003;60257;42.638;23.376;2022-08-23T00:27:35;30.25;27.50;15.25
72307;PMS5003;60257;42.638;23.376;2022-08-23T00:30:01;30.33;28.67;18.33
72307;PMS5003;60257;42.638;23.376;2022-08-23T00:32:30;33.33;30.33;18.00
72307;PMS5003;60257;42.638;23.376;2022-08-23T00:34:58;33.33;30.00;18.67
72307;PMS5003;60257;42.638;23.376;2022-08-23T00:37:24;32.00;29.67;20.00
72307;PMS5003;60257;42.638;23.376;2022-08-23T00:39:51;32.33;30.00;18.00
72307;PMS5003;60257;42.638;23.376;2022-08-23T00:42:39;32.67;31.00;20.00
72307;PMS5003;60257;42.638;23.376;2022-08-23T00:45:28;31.67;30.33;14.33
72307;PMS5003;60257;42.638;23.376;2022-08-23T00:48:19;31.00;30.33;20.00
72307;PMS5003;60257;42.638;23.376;2022-08-23T00:50:51;31.33;30.33;18.00
72307;PMS5003;60257;42.638;23.376;2022-08-23T00:53:26;15.33;14.33;4.00
72307;PMS5003;60257;42.638;23.376;2022-08-23T00:55:57;31.33;29.67;18.67
72307;PMS5003;60257;42.638;23.376;2022-08-23T00:58:24;32.00;29.33;18.33
72307;PMS5003;60257;42.638;23.376;2022-08-23T01:00:51;33.33;30.67;19.33
72307;PMS5003;60257;42.638;23.376;2022-08-23T01:03:19;27.75;27.50;17.75
72307;PMS5003;60257;42.638;23.376;2022-08-23T01:05:54;22.00;20.67;11.67
72307;PMS5003;60257;42.638;23.376;2022-08-23T01:08:25;31.75;29.75;19.00
72307;PMS5003;60257;42.638;23.376;2022-08-23T01:10:55;31.67;28.33;17.33
72307;PMS5003;60257;42.638;23.376;2022-08-23T01:13:44;29.00;29.00;18.33
72307;PMS5003;60257;42.638;23.376;2022-08-23T01:16:49;28.33;28.00;17.67
72307;PMS5003;60257;42.638;23.376;2022-08-23T01:19:17;30.67;30.00;18.67
72307;PMS5003;60257;42.638;23.376;2022-08-23T01:22:00;30.00;29.33;18.00
72307;PMS5003;60257;42.638;23.376;2022-08-23T01:24:34;30.00;27.67;17.00
72307;PMS5003;60257;42.638;23.376;2022-08-23T01:27:01;33.00;31.00;20.00
72307;PMS5003;60257;42.638;23.376;2022-08-23T01:29:29;36.33;30.00;16.33
72307;PMS5003;60257;42.638;23.376;2022-08-23T01:31:54;42.00;36.00;20.00
72307;PMS5003;60257;42.638;23.376;2022-08-23T01:34:23;36.33;32.33;19.33
72307;PMS5003;60257;42.638;23.376;2022-08-23T01:36:51;32.33;28.33;20.00
72307;PMS5003;60257;42.638;23.376;2022-08-23T01:39:17;37.00;32.33;20.00
72307;PMS5003;60257;42.638;23.376;2022-08-23T01:41:42;36.33;32.00;19.67
72307;PMS5003;60257;42.638;23.376;2022-08-23T01:44:08;31.00;30.00;17.00
72307;PMS5003;60257;42.638;23.376;2022-08-23T01:46:33;34.00;31.67;20.00
72307;PMS5003;60257;42.638;23.376;2022-08-23T01:49:01;42.33;34.67;21.00
72307;PMS5003;60257;42.638;23.376;2022-08-23T01:51:28;33.00;31.67;20.33
72307;PMS5003;60257;42.638;23.376;2022-08-23T01:53:54;38.33;32.00;19.33
72307;PMS5003;60257;42.638;23.376;2022-08-23T01:56:19;31.00;30.00;17.33
72307;PMS5003;60257;42.638;23.376;2022-08-23T01:58:46;36.00;32.00;19.00
72307;PMS5003;60257;42.638;23.376;2022-08-23T02:01:14;37.00;33.33;20.00
72307;PMS5003;60257;42.638;23.376;2022-08-23T02:03:41;34.00;31.00;19.00
72307;PMS5003;60257;42.638;23.376;2022-08-23T02:06:06;32.00;29.33;16.67
72307;PMS5003;60257;42.638;23.376;2022-08-23T02:08:32;34.33;32.00;20.00
72307;PMS5003;60257;42.638;23.376;2022-08-23T02:11:17;34.33;32.00;19.67
72307;PMS5003;60257;42.638;23.376;2022-08-23T02:13:46;35.00;32.00;19.33
72307;PMS5003;60257;42.638;23.376;2022-08-23T02:16:12;77.50;71.00;43.00
72307;PMS5003;60257;42.638;23.376;2022-08-23T02:18:44;73.25;67.00;40.75
72307;PMS5003;60257;42.638;23.376;2022-08-23T02:21:10;59.33;48.00;30.67
72307;PMS5003;60257;42.638;23.376;2022-08-23T02:23:35;49.67;41.67;26.00
72307;PMS5003;60257;42.638;23.376;2022-08-23T02:26:01;47.00;39.67;24.00
72307;PMS5003;60257;42.638;23.376;2022-08-23T02:28:26;34.67;32.00;20.00
72307;PMS5003;60257;42.638;23.376;2022-08-23T02:30:52;35.33;33.00;20.67
72307;PMS5003;60257;42.638;23.376;2022-08-23T02:33:18;27.67;26.33;17.00
72307;PMS5003;60257;42.638;23.376;2022-08-23T02:35:43;28.67;28.33;17.00
72307;PMS5003;60257;42.638;23.376;2022-08-23T02:38:10;30.25;29.75;19.25
72307;PMS5003;60257;42.638;23.376;2022-08-23T02:40:37;29.67;29.67;18.00
72307;PMS5003;60257;42.638;23.376;2022-08-23T02:43:04;33.00;29.75;17.25
72307;PMS5003;60257;42.638;23.376;2022-08-23T02:45:31;27.50;27.50;16.75
72307;PMS5003;60257;42.638;23.376;2022-08-23T02:47:57;32.50;30.00;18.25
72307;PMS5003;60257;42.638;23.376;2022-08-23T02:50:23;36.67;33.67;21.33
72307;PMS5003;60257;42.638;23.376;2022-08-23T02:52:50;26.00;26.00;14.75
72307;PMS5003;60257;42.638;23.376;2022-08-23T02:55:15;25.25;24.75;15.50
72307;PMS5003;60257;42.638;23.376;2022-08-23T02:57:41;30.00;28.75;16.00
72307;PMS5003;60257;42.638;23.376;2022-08-23T03:00:07;29.75;28.00;17.00
72307;PMS5003;60257;42.638;23.376;2022-08-23T03:02:36;21.75;21.75;14.50
72307;PMS5003;60257;42.638;23.376;2022-08-23T03:05:03;24.50;23.00;14.75
72307;PMS5003;60257;42.638;23.376;2022-08-23T03:07:29;24.00;21.50;13.75
72307;PMS5003;60257;42.638;23.376;2022-08-23T03:09:55;24.00;21.75;13.50
72307;PMS5003;60257;42.638;23.376;2022-08-23T03:12:21;21.00;20.00;13.25
72307;PMS5003;60257;42.638;23.376;2022-08-23T03:14:48;19.25;19.25;14.25
72307;PMS5003;60257;42.638;23.376;2022-08-23T03:17:16;22.25;20.75;10.25
72307;PMS5003;60257;42.638;23.376;2022-08-23T03:19:42;20.25;20.25;13.00
72307;PMS5003;60257;42.638;23.376;2022-08-23T03:22:07;20.75;20.75;14.25
72307;PMS5003;60257;42.638;23.376;2022-08-23T03:24:33;25.25;25.25;15.50
72307;PMS5003;60257;42.638;23.376;2022-08-23T03:27:00;21.75;20.50;13.75
72307;PMS5003;60257;42.638;23.376;2022-08-23T03:29:27;21.50;20.50;13.75
72307;PMS5003;60257;42.638;23.376;2022-08-23T03:31:52;19.00;19.00;12.00
72307;PMS5003;60257;42.638;23.376;2022-08-23T03:34:18;17.50;17.50;11.25
72307;PMS5003;60257;42.638;23.376;2022-08-23T03:36:44;19.25;17.25;11.25
72307;PMS5003;60257;42.638;23.376;2022-08-23T03:39:10;15.50;15.25;11.00
72307;PMS5003;60257;42.638;23.376;2022-08-23T03:41:35;17.50;16.50;10.25
72307;PMS5003;60257;42.638;23.376;2022-08-23T03:44:02;17.50;17.50;10.75
72307;PMS5003;60257;42.638;23.376;2022-08-23T03:46:28;20.25;19.25;11.75
72307;PMS5003;60257;42.638;23.376;2022-08-23T03:48:56;19.75;18.75;11.50
72307;PMS5003;60257;42.638;23.376;2022-08-23T03:51:25;15.50;15.50;8.25
72307;PMS5003;60257;42.638;23.376;2022-08-23T03:53:53;19.50;18.00;11.25
72307;PMS5003;60257;42.638;23.376;2022-08-23T03:56:28;13.25;13.25;8.50
72307;PMS5003;60257;42.638;23.376;2022-08-23T03:58:56;14.75;14.75;10.25
72307;PMS5003;60257;42.638;23.376;2022-08-23T04:01:23;16.50;16.25;10.50
72307;PMS5003;60257;42.638;23.376;2022-08-23T04:03:49;19.75;18.25;10.50
72307;PMS5003;60257;42.638;23.376;2022-08-23T04:06:15;20.25;20.25;12.00
72307;PMS5003;60257;42.638;23.376;2022-08-23T04:08:42;21.25;21.25;14.25
72307;PMS5003;60257;42.638;23.376;2022-08-23T04:11:08;23.50;22.25;14.25
72307;PMS5003;60257;42.638;23.376;2022-08-23T04:13:36;19.50;18.75;11.50
72307;PMS5003;60257;42.638;23.376;2022-08-23T04:16:03;20.75;20.75;12.75
72307;PMS5003;60257;42.638;23.376;2022-08-23T04:18:29;21.50;18.50;10.00
72307;PMS5003;60257;42.638;23.376;2022-08-23T04:20:56;23.00;21.25;10.25
72307;PMS5003;60257;42.638;23.376;2022-08-23T04:23:23;21.75;21.00;10.75
72307;PMS5003;60257;42.638;23.376;2022-08-23T04:25:49;17.00;17.00;10.00
72307;PMS5003;60257;42.638;23.376;2022-08-23T04:28:15;17.00;16.00;9.50
72307;PMS5003;60257;42.638;23.376;2022-08-23T04:30:40;19.50;15.25;10.00
72307;PMS5003;60257;42.638;23.376;2022-08-23T04:33:06;14.50;14.25;8.00
72307;PMS5003;60257;42.638;23.376;2022-08-23T04:35:32;12.00;12.00;7.75
72307;PMS5003;60257;42.638;23.376;2022-08-23T04:37:58;10.75;10.75;7.00
72307;PMS5003;60257;42.638;23.376;2022-08-23T04:40:23;14.00;14.00;8.00
72307;PMS5003;60257;42.638;23.376;2022-08-23T04:43:08;15.00;12.75;8.00
72307;PMS5003;60257;42.638;23.376;2022-08-23T04:45:36;13.50;13.25;7.75
72307;PMS5003;60257;42.638;23.376;2022-08-23T04:48:03;15.50;14.25;8.25
72307;PMS5003;60257;42.638;23.376;2022-08-23T04:50:28;16.00;15.00;10.00
72307;PMS5003;60257;42.638;23.376;2022-08-23T04:52:54;13.00;12.25;8.00
72307;PMS5003;60257;42.638;23.376;2022-08-23T04:55:19;16.25;16.25;8.75
72307;PMS5003;60257;42.638;23.376;2022-08-23T04:57:46;10.75;9.75;6.25
72307;PMS5003;60257;42.638;23.376;2022-08-23T05:00:11;17.75;15.75;9.00
72307;PMS5003;60257;42.638;23.376;2022-08-23T05:02:39;14.25;13.75;9.00
72307;PMS5003;60257;42.638;23.376;2022-08-23T05:05:05;6.25;6.25;4.75
72307;PMS5003;60257;42.638;23.376;2022-08-23T05:07:32;13.25;13.25;7.00
72307;PMS5003;60257;42.638;23.376;2022-08-23T05:09:57;17.00;17.00;11.00
72307;PMS5003;60257;42.638;23.376;2022-08-23T05:12:23;14.00;14.00;9.00
72307;PMS5003;60257;42.638;23.376;2022-08-23T05:14:48;18.75;14.25;7.50
72307;PMS5003;60257;42.638;23.376;2022-08-23T05:17:14;12.00;10.25;6.50
72307;PMS5003;60257;42.638;23.376;2022-08-23T05:19:39;14.50;13.75;8.00
72307;PMS5003;60257;42.638;23.376;2022-08-23T05:22:04;15.00;15.00;9.00
72307;PMS5003;60257;42.638;23.376;2022-08-23T05:24:30;14.25;14.25;9.00
72307;PMS5003;60257;42.638;23.376;2022-08-23T05:26:55;14.75;14.75;9.00
72307;PMS5003;60257;42.638;23.376;2022-08-23T05:29:21;16.00;13.00;9.00
72307;PMS5003;60257;42.638;23.376;2022-08-23T05:31:47;18.00;17.50;9.25
72307;PMS5003;60257;42.638;23.376;2022-08-23T05:34:12;11.75;11.75;6.50
72307;PMS5003;60257;42.638;23.376;2022-08-23T05:36:38;8.25;8.25;6.50
72307;PMS5003;60257;42.638;23.376;2022-08-23T05:39:04;14.00;14.00;9.00
72307;PMS5003;60257;42.638;23.376;2022-08-23T05:41:30;14.75;14.25;8.75
72307;PMS5003;60257;42.638;23.376;2022-08-23T05:43:55;17.00;17.00;9.75
72307;PMS5003;60257;42.638;23.376;2022-08-23T05:46:21;17.25;16.25;10.50
72307;PMS5003;60257;42.638;23.376;2022-08-23T05:48:47;17.25;17.25;11.00
72307;PMS5003;60257;42.638;23.376;2022-08-23T05:51:22;21.25;21.25;11.25
72307;PMS5003;60257;42.638;23.376;2022-08-23T05:53:52;22.00;22.00;15.25
72307;PMS5003;60257;42.638;23.376;2022-08-23T05:56:22;25.00;25.00;14.25
72307;PMS5003;60257;42.638;23.376;2022-08-23T05:58:50;26.00;26.00;15.50
72307;PMS5003;60257;42.638;23.376;2022-08-23T06:01:18;34.00;30.00;16.33
72307;PMS5003;60257;42.638;23.376;2022-08-23T06:03:44;36.00;33.67;21.00
72307;PMS5003;60257;42.638;23.376;2022-08-23T06:06:10;29.75;27.00;17.00
72307;PMS5003;60257;42.638;23.376;2022-08-23T06:08:37;31.00;31.00;16.25
72307;PMS5003;60257;42.638;23.376;2022-08-23T06:13:38;29.25;28.00;18.25
72307;PMS5003;60257;42.638;23.376;2022-08-23T06:16:05;34.00;32.00;20.00
72307;PMS5003;60257;42.638;23.376;2022-08-23T06:18:31;31.00;30.50;19.50
72307;PMS5003;60257;42.638;23.376;2022-08-23T06:21:07;27.75;24.50;14.25
72307;PMS5003;60257;42.638;23.376;2022-08-23T06:23:35;29.75;28.75;15.75
72307;PMS5003;60257;42.638;23.376;2022-08-23T06:26:08;20.25;20.25;11.00
72307;PMS5003;60257;42.638;23.376;2022-08-23T06:28:39;18.25;18.00;10.25
72307;PMS5003;60257;42.638;23.376;2022-08-23T06:31:05;22.75;20.50;11.50
72307;PMS5003;60257;42.638;23.376;2022-08-23T06:33:31;19.00;19.00;10.50
72307;PMS5003;60257;42.638;23.376;2022-08-23T06:36:04;17.00;17.00;9.00
72307;PMS5003;60257;42.638;23.376;2022-08-23T06:38:35;16.50;16.50;9.25
72307;PMS5003;60257;42.638;23.376;2022-08-23T06:41:04;12.25;12.25;9.25
72307;PMS5003;60257;42.638;23.376;2022-08-23T06:43:32;20.25;18.00;11.75
72307;PMS5003;60257;42.638;23.376;2022-08-23T06:46:18;20.25;19.25;10.75
72307;PMS5003;60257;42.638;23.376;2022-08-23T06:48:48;17.00;17.00;10.50
72307;PMS5003;60257;42.638;23.376;2022-08-23T06:51:19;23.25;19.00;11.00
72307;PMS5003;60257;42.638;23.376;2022-08-23T06:53:48;21.50;20.00;13.00
72307;PMS5003;60257;42.638;23.376;2022-08-23T06:56:13;19.75;19.75;12.25
72307;PMS5003;60257;42.638;23.376;2022-08-23T06:58:39;19.75;18.25;11.25
72307;PMS5003;60257;42.638;23.376;2022-08-23T07:03:35;27.50;26.50;16.25
72307;PMS5003;60257;42.638;23.376;2022-08-23T07:06:01;32.25;32.00;19.50
72307;PMS5003;60257;42.638;23.376;2022-08-23T07:08:26;35.75;32.00;20.50
72307;PMS5003;60257;42.638;23.376;2022-08-23T07:10:54;28.00;26.75;15.50
72307;PMS5003;60257;42.638;23.376;2022-08-23T07:13:20;28.75;26.50;16.50
72307;PMS5003;60257;42.638;23.376;2022-08-23T07:15:46;34.00;32.75;21.50
72307;PMS5003;60257;42.638;23.376;2022-08-23T07:18:12;35.25;31.75;18.75
72307;PMS5003;60257;42.638;23.376;2022-08-23T07:20:38;31.25;31.25;19.00
72307;PMS5003;60257;42.638;23.376;2022-08-23T07:23:04;31.50;31.50;17.75
72307;PMS5003;60257;42.638;23.376;2022-08-23T07:25:29;38.00;32.50;20.25
72307;PMS5003;60257;42.638;23.376;2022-08-23T07:27:56;31.25;29.50;19.50
72307;PMS5003;60257;42.638;23.376;2022-08-23T07:30:22;31.00;29.00;16.25
72307;PMS5003;60257;42.638;23.376;2022-08-23T07:32:48;32.75;29.75;17.00
72307;PMS5003;60257;42.638;23.376;2022-08-23T07:35:14;28.75;25.50;15.75
72307;PMS5003;60257;42.638;23.376;2022-08-23T07:37:40;24.25;24.25;14.25
72307;PMS5003;60257;42.638;23.376;2022-08-23T07:40:06;29.25;28.00;17.25
72307;PMS5003;60257;42.638;23.376;2022-08-23T07:42:32;39.25;33.75;21.50
72307;PMS5003;60257;42.638;23.376;2022-08-23T07:44:58;40.00;36.67;21.67
72307;PMS5003;60257;42.638;23.376;2022-08-23T07:47:23;36.25;34.00;21.00
72307;PMS5003;60257;42.638;23.376;2022-08-23T07:49:49;28.50;28.25;19.75
72307;PMS5003;60257;42.638;23.376;2022-08-23T07:52:15;31.50;31.25;19.50
72307;PMS5003;60257;42.638;23.376;2022-08-23T07:54:40;28.25;27.75;17.50
72307;PMS5003;60257;42.638;23.376;2022-08-23T07:57:06;35.25;31.50;20.50
72307;PMS5003;60257;42.638;23.376;2022-08-23T07:59:32;36.25;33.25;21.25
72307;PMS5003;60257;42.638;23.376;2022-08-23T08:01:58;37.25;33.00;21.50
72307;PMS5003;60257;42.638;23.376;2022-08-23T08:04:23;33.00;31.25;20.50
72307;PMS5003;60257;42.638;23.376;2022-08-23T08:06:49;39.25;34.75;21.25
72307;PMS5003;60257;42.638;23.376;2022-08-23T08:09:16;33.00;31.00;18.00
72307;PMS5003;60257;42.638;23.376;2022-08-23T08:11:46;35.50;33.50;22.00
72307;PMS5003;60257;42.638;23.376;2022-08-23T08:14:12;27.00;27.00;19.50
72307;PMS5003;60257;42.638;23.376;2022-08-23T08:16:48;32.75;32.00;21.50
72307;PMS5003;60257;42.638;23.376;2022-08-23T08:19:15;43.33;38.00;24.00
72307;PMS5003;60257;42.638;23.376;2022-08-23T08:21:42;30.50;30.25;18.75
72307;PMS5003;60257;42.638;23.376;2022-08-23T08:24:10;22.50;20.75;12.50
72307;PMS5003;60257;42.638;23.376;2022-08-23T08:26:38;25.75;24.25;13.50
72307;PMS5003;60257;42.638;23.376;2022-08-23T08:29:06;27.75;25.00;16.25
72307;PMS5003;60257;42.638;23.376;2022-08-23T08:31:34;27.50;24.75;15.50
72307;PMS5003;60257;42.638;23.376;2022-08-23T08:34:02;25.25;25.25;15.00
72307;PMS5003;60257;42.638;23.376;2022-08-23T08:38:55;28.25;27.00;15.50
72307;PMS5003;60257;42.638;23.376;2022-08-23T08:41:29;24.25;22.75;16.00
72307;PMS5003;60257;42.638;23.376;2022-08-23T08:46:53;29.00;29.00;18.75
72307;PMS5003;60257;42.638;23.376;2022-08-23T08:52:13;27.50;27.50;16.25
72307;PMS5003;60257;42.638;23.376;2022-08-23T08:54:58;37.25;33.25;21.25
72307;PMS5003;60257;42.638;23.376;2022-08-23T08:57:49;32.75;32.50;20.75
72307;PMS5003;60257;42.638;23.376;2022-08-23T09:00:18;32.50;29.25;19.00
72307;PMS5003;60257;42.638;23.376;2022-08-23T09:02:46;32.75;30.75;21.00
72307;PMS5003;60257;42.638;23.376;2022-08-23T09:05:13;39.75;35.50;21.75
72307;PMS5003;60257;42.638;23.376;2022-08-23T09:13:34;32.50;30.50;18.75
72307;PMS5003;60257;42.638;23.376;2022-08-23T09:16:42;36.33;33.33;22.67
72307;PMS5003;60257;42.638;23.376;2022-08-23T09:19:15;34.00;31.75;20.50
72307;PMS5003;60257;42.638;23.376;2022-08-23T09:21:46;28.00;26.75;19.25
72307;PMS5003;60257;42.638;23.376;2022-08-23T09:24:50;37.75;32.25;20.25
72307;PMS5003;60257;42.638;23.376;2022-08-23T09:27:16;30.50;30.00;20.75
72307;PMS5003;60257;42.638;23.376;2022-08-23T09:29:52;33.25;29.75;16.00
72307;PMS5003;60257;42.638;23.376;2022-08-23T09:37:44;27.75;27.75;17.75
72307;PMS5003;60257;42.638;23.376;2022-08-23T09:40:15;33.00;31.25;18.25
72307;PMS5003;60257;42.638;23.376;2022-08-23T09:42:43;31.75;31.00;21.00
72307;PMS5003;60257;42.638;23.376;2022-08-23T09:45:25;37.00;33.25;21.00
72307;PMS5003;60257;42.638;23.376;2022-08-23T09:47:56;35.00;33.25;20.00
72307;PMS5003;60257;42.638;23.376;2022-08-23T09:50:26;30.75;30.75;16.25
72307;PMS5003;60257;42.638;23.376;2022-08-23T09:52:59;58.33;48.00;31.00
72307;PMS5003;60257;42.638;23.376;2022-08-23T09:57:56;26.00;26.00;17.50
72307;PMS5003;60257;42.638;23.376;2022-08-23T10:00:26;35.00;31.50;19.00
72307;PMS5003;60257;42.638;23.376;2022-08-23T10:05:51;30.25;28.25;18.25
72307;PMS5003;60257;42.638;23.376;2022-08-23T10:08:30;27.50;27.50;17.50
72307;PMS5003;60257;42.638;23.376;2022-08-23T10:11:04;23.50;22.50;14.00
72307;PMS5003;60257;42.638;23.376;2022-08-23T10:13:38;22.50;22.50;14.50
72307;PMS5003;60257;42.638;23.376;2022-08-23T10:21:27;30.75;29.25;18.00
72307;PMS5003;60257;42.638;23.376;2022-08-23T10:30:32;25.75;25.75;18.50
72307;PMS5003;60257;42.638;23.376;2022-08-23T10:33:14;22.25;22.25;15.25
72307;PMS5003;60257;42.638;23.376;2022-08-23T10:36:02;24.50;23.50;14.25
72307;PMS5003;60257;42.638;23.376;2022-08-23T10:38:36;28.00;26.25;17.25
72307;PMS5003;60257;42.638;23.376;2022-08-23T10:47:03;21.25;19.75;11.00
72307;PMS5003;60257;42.638;23.376;2022-08-23T10:49:43;18.75;18.00;13.00
72307;PMS5003;60257;42.638;23.376;2022-08-23T10:52:18;21.50;19.75;13.00
72307;PMS5003;60257;42.638;23.376;2022-08-23T10:54:49;23.50;21.75;14.25
72307;PMS5003;60257;42.638;23.376;2022-08-23T10:57:33;17.00;17.00;11.50
72307;PMS5003;60257;42.638;23.376;2022-08-23T11:00:03;17.50;16.25;10.50
72307;PMS5003;60257;42.638;23.376;2022-08-23T11:05:02;17.25;16.25;10.00
72307;PMS5003;60257;42.638;23.376;2022-08-23T11:07:41;20.75;20.00;13.75
72307;PMS5003;60257;42.638;23.376;2022-08-23T11:10:09;26.25;25.50;16.75
72307;PMS5003;60257;42.638;23.376;2022-08-23T11:12:53;28.25;26.25;15.25
72307;PMS5003;60257;42.638;23.376;2022-08-23T11:18:53;25.50;25.00;15.75
72307;PMS5003;60257;42.638;23.376;2022-08-23T11:23:35;20.50;20.50;14.50
72307;PMS5003;60257;42.638;23.376;2022-08-23T11:26:01;28.25;24.00;16.50
72307;PMS5003;60257;42.638;23.376;2022-08-23T11:28:30;26.50;26.50;17.25
72307;PMS5003;60257;42.638;23.376;2022-08-23T11:33:40;30.50;29.25;19.25
72307;PMS5003;60257;42.638;23.376;2022-08-23T11:41:20;23.25;22.50;17.25
72307;PMS5003;60257;42.638;23.376;2022-08-23T11:43:49;19.50;18.50;12.75
72307;PMS5003;60257;42.638;23.376;2022-08-23T11:52:05;29.00;25.25;18.25
72307;PMS5003;60257;42.638;23.376;2022-08-23T11:54:45;19.25;19.25;11.50
72307;PMS5003;60257;42.638;23.376;2022-08-23T12:24:11;17.25;17.25;10.00
72307;PMS5003;60257;42.638;23.376;2022-08-23T12:26:44;17.00;16.25;10.50
72307;PMS5003;60257;42.638;23.376;2022-08-23T12:29:29;16.75;15.75;9.50
72307;PMS5003;60257;42.638;23.376;2022-08-23T12:40:06;18.25;16.75;9.50
72307;PMS5003;60257;42.638;23.376;2022-08-23T12:42:37;14.75;14.75;10.25
72307;PMS5003;60257;42.638;23.376;2022-08-23T12:47:29;13.25;13.00;7.25
72307;PMS5003;60257;42.638;23.376;2022-08-23T12:52:34;11.25;11.25;6.25
72307;PMS5003;60257;42.638;23.376;2022-08-23T12:55:00;12.50;12.25;7.00
72307;PMS5003;60257;42.638;23.376;2022-08-23T12:57:30;14.50;14.50;10.00
72307;PMS5003;60257;42.638;23.376;2022-08-23T13:02:37;15.25;15.25;11.50
72307;PMS5003;60257;42.638;23.376;2022-08-23T13:05:11;12.50;12.50;8.50
72307;PMS5003;60257;42.638;23.376;2022-08-23T13:07:41;15.25;15.25;9.50
72307;PMS5003;60257;42.638;23.376;2022-08-23T13:10:07;18.75;18.00;10.00
72307;PMS5003;60257;42.638;23.376;2022-08-23T13:12:35;19.25;17.75;12.50
72307;PMS5003;60257;42.638;23.376;2022-08-23T13:15:01;16.75;16.00;8.75
72307;PMS5003;60257;42.638;23.376;2022-08-23T13:17:33;15.50;14.00;10.00
72307;PMS5003;60257;42.638;23.376;2022-08-23T13:22:31;14.75;14.75;10.75
72307;PMS5003;60257;42.638;23.376;2022-08-23T13:27:24;18.25;16.75;10.75
72307;PMS5003;60257;42.638;23.376;2022-08-23T13:29:57;16.50;16.00;9.25
72307;PMS5003;60257;42.638;23.376;2022-08-23T13:32:45;14.75;14.00;10.25
72307;PMS5003;60257;42.638;23.376;2022-08-23T13:35:37;14.00;13.25;8.25
72307;PMS5003;60257;42.638;23.376;2022-08-23T13:38:10;14.75;14.75;9.00
72307;PMS5003;60257;42.638;23.376;2022-08-23T13:43:16;18.25;16.75;10.25
72307;PMS5003;60257;42.638;23.376;2022-08-23T13:45:49;20.25;18.50;11.75
72307;PMS5003;60257;42.638;23.376;2022-08-23T13:48:53;16.75;15.75;9.00
72307;PMS5003;60257;42.638;23.376;2022-08-23T13:51:16;16.25;16.25;11.25
72307;PMS5003;60257;42.638;23.376;2022-08-23T13:53:44;15.50;15.50;8.25
72307;PMS5003;60257;42.638;23.376;2022-08-23T13:56:10;18.50;17.75;10.75
72307;PMS5003;60257;42.638;23.376;2022-08-23T13:58:38;20.00;19.50;11.25
72307;PMS5003;60257;42.638;23.376;2022-08-23T14:01:03;17.75;17.75;11.00
72307;PMS5003;60257;42.638;23.376;2022-08-23T14:03:39;20.50;16.75;11.50
72307;PMS5003;60257;42.638;23.376;2022-08-23T14:06:05;20.50;19.00;12.00
72307;PMS5003;60257;42.638;23.376;2022-08-23T14:08:31;19.75;18.00;11.00
72307;PMS5003;60257;42.638;23.376;2022-08-23T14:10:56;25.00;21.75;13.50
72307;PMS5003;60257;42.638;23.376;2022-08-23T14:13:23;21.25;20.25;11.75
72307;PMS5003;60257;42.638;23.376;2022-08-23T14:15:52;18.75;18.75;11.25
72307;PMS5003;60257;42.638;23.376;2022-08-23T14:18:20;18.50;18.50;10.25
72307;PMS5003;60257;42.638;23.376;2022-08-23T14:20:46;9.25;9.25;5.00
72307;PMS5003;60257;42.638;23.376;2022-08-23T14:23:11;11.75;10.25;5.75
72307;PMS5003;60257;42.638;23.376;2022-08-23T14:25:37;6.00;5.25;4.00
72307;PMS5003;60257;42.638;23.376;2022-08-23T14:28:02;8.50;8.00;4.00
72307;PMS5003;60257;42.638;23.376;2022-08-23T14:30:29;14.50;12.00;6.50
72307;PMS5003;60257;42.638;23.376;2022-08-23T14:32:57;10.25;10.25;7.00
72307;PMS5003;60257;42.638;23.376;2022-08-23T14:35:23;14.00;13.50;7.75
72307;PMS5003;60257;42.638;23.376;2022-08-23T14:37:49;11.75;11.75;6.25
72307;PMS5003;60257;42.638;23.376;2022-08-23T14:40:15;9.25;9.25;6.00
72307;PMS5003;60257;42.638;23.376;2022-08-23T14:42:41;10.00;10.00;6.00
72307;PMS5003;60257;42.638;23.376;2022-08-23T14:45:08;12.00;12.00;7.50
72307;PMS5003;60257;42.638;23.376;2022-08-23T14:47:34;18.25;15.50;8.25
72307;PMS5003;60257;42.638;23.376;2022-08-23T14:50:00;21.00;19.25;11.50
72307;PMS5003;60257;42.638;23.376;2022-08-23T14:52:27;17.25;17.25;11.25
72307;PMS5003;60257;42.638;23.376;2022-08-23T14:54:53;21.00;16.25;10.00
72307;PMS5003;60257;42.638;23.376;2022-08-23T14:57:18;14.25;14.25;8.75
72307;PMS5003;60257;42.638;23.376;2022-08-23T14:59:44;51.33;43.33;29.67
72307;PMS5003;60257;42.638;23.376;2022-08-23T15:02:10;8.00;8.00;4.00
72307;PMS5003;60257;42.638;23.376;2022-08-23T15:04:37;17.75;17.75;10.25
72307;PMS5003;60257;42.638;23.376;2022-08-23T15:07:04;20.00;17.75;9.00
72307;PMS5003;60257;42.638;23.376;2022-08-23T15:09:29;22.33;22.33;16.67
72307;PMS5003;60257;42.638;23.376;2022-08-23T15:11:55;25.75;24.75;15.25
72307;PMS5003;60257;42.638;23.376;2022-08-23T15:14:20;21.50;20.25;12.00
72307;PMS5003;60257;42.638;23.376;2022-08-23T15:16:46;16.25;16.25;10.25
72307;PMS5003;60257;42.638;23.376;2022-08-23T15:19:12;25.00;21.50;14.50
72307;PMS5003;60257;42.638;23.376;2022-08-23T15:21:38;14.50;14.50;7.75
72307;PMS5003;60257;42.638;23.376;2022-08-23T15:24:04;18.50;16.75;11.00
72307;PMS5003;60257;42.638;23.376;2022-08-23T15:26:29;16.75;15.50;11.00
72307;PMS5003;60257;42.638;23.376;2022-08-23T15:28:56;21.00;19.50;11.50
72307;PMS5003;60257;42.638;23.376;2022-08-23T15:31:21;19.00;19.00;12.25
72307;PMS5003;60257;42.638;23.376;2022-08-23T15:33:47;21.25;19.25;12.00
72307;PMS5003;60257;42.638;23.376;2022-08-23T15:36:13;22.50;20.25;12.75
72307;PMS5003;60257;42.638;23.376;2022-08-23T15:38:41;23.00;21.25;13.00
72307;PMS5003;60257;42.638;23.376;2022-08-23T15:41:08;23.25;21.75;13.50
72307;PMS5003;60257;42.638;23.376;2022-08-23T15:43:33;25.50;22.50;15.50
72307;PMS5003;60257;42.638;23.376;2022-08-23T15:46:04;20.25;19.75;11.75